• Join FlightAware (Why Join?)
  • Login
  • US Flag 
04:04AM EDT


 

Airport Tracker/Info


-or-


 

Live Flight TrackerFlight Track Log ✈ AWE3287 ✈ 21-Apr-2013 ✈ KPHL - KORF

Flight Track Log - Related Links

Times and Time Zones

All times are in EDT time to prevent confusion due to time zone crossing. See the AWE3287 flight status page for this flight to view local times or setup timezone preferences in your user account.

Time Position Orientation Groundspeed Altitude Reporting Facility
EDT Latitude Longitude Course Direction KTS MPH feet Rate Location/Type
02:06PM 39.8833 -75.2167 180° South 160 184 900  Level Philadelphia TRACON
02:07PM 39.8700 -75.1981 133° Southeast 161 185 1,600 1,200 Climbing FAA TRACON SMA TRACON (SMA)
02:07PM 39.8608 -75.1728 115° Southeast 208 239 1,900 1,860 Climbing FAA TRACON SMA TRACON (SMA)
02:08PM 39.8525 -75.1517 117° Southeast 213 245 2,900 2,400 Climbing FAA TRACON SMA TRACON (SMA)
02:08PM 39.8436 -75.1297 118° Southeast 220 253 3,500 1,920 Climbing FAA TRACON SMA TRACON (SMA)
02:08PM 39.8322 -75.0994 116° Southeast 245 282 4,200 2,700 Climbing FAA TRACON SMA TRACON (SMA)
02:09PM 39.6509 -75.2833 180° South  Level FlightAware Approximate
02:09PM 39.8219 -75.0725 116° Southeast 262 302 5,300  Level FAA TRACON SMA TRACON (SMA)
02:09PM 39.8125 -75.0478 116° Southeast 259 298 6,200 2,700 Climbing FAA TRACON SMA TRACON (SMA)
02:09PM 39.8017 -75.0197 117° Southeast 265 305 7,100 2,880 Climbing FAA TRACON SMA TRACON (SMA)
02:10PM 39.5806 -75.3005 189° South  Level FlightAware Approximate
02:10PM 39.7833 -74.9883 127° Southeast 311 358 8,200  Level FAA TRACON SMA TRACON (SMA)
02:10PM 39.7600 -74.9797 164° South 286 329 9,300 3,480 Climbing FAA TRACON SMA TRACON (SMA)
02:10PM 39.7328 -74.9956 204° Southwest 285 328 10,500 2,520 Climbing FAA TRACON SMA TRACON (SMA)
02:11PM 39.5068 -75.3153 189° South  Level FlightAware Approximate
02:11PM 39.7225 -75.0211 242° Southwest 283 326 11,000  Level FAA TRACON SMA TRACON (SMA)
02:11PM 39.7153 -75.0564 255° West 298 343 11,800 1,500 Climbing FAA TRACON SMA TRACON (SMA)
02:11PM 39.6997 -75.0908 240° Southwest 299 344 12,000 240 Climbing FAA TRACON SMA TRACON (SMA)
02:12PM 39.4338 -75.3333 180° South  Level FlightAware Approximate
02:12PM 39.6811 -75.1147 225° Southwest 306 352 12,000  Level FAA TRACON SMA TRACON (SMA)
02:12PM 39.6622 -75.1378 223° Southwest 304 350 12,000  Level FAA TRACON SMA TRACON (SMA)
02:12PM 39.6428 -75.1608 222° Southwest 304 350 12,000  Level FAA TRACON SMA TRACON (SMA)
02:13PM 39.6192 -75.1892 223° Southwest 302 348 12,000  Level FAA TRACON SMA TRACON (SMA)
02:13PM 39.5994 -75.2111 221° Southwest 303 349 12,000 300 Level FAA TRACON SMA TRACON (SMA)
02:13PM 39.5808 -75.2353 225° Southwest 304 350 12,200 2,100 Climbing FAA TRACON SMA TRACON (SMA)
02:14PM 39.5564 -75.2647 223° Southwest 309 356 13,400 3,180 Climbing FAA TRACON SMA TRACON (SMA)
02:14PM 39.5369 -75.2881 223° Southwest 309 356 14,300 2,580 Climbing FAA TRACON SMA TRACON (SMA)
02:14PM 39.5183 -75.3103 223° Southwest 310 357 15,100 2,520 Climbing FAA TRACON SMA TRACON (SMA)
02:15PM 39.4878 -75.3297 206° Southwest 323 372 16,000 2,700 Climbing FAA TRACON SMA TRACON (SMA)
02:15PM 39.4586 -75.3358 189° South 324 373 16,900 1,500 Climbing FAA TRACON SMA TRACON (SMA)
02:15PM 39.4314 -75.3397 186° South 329 379 17,000 120 Climbing FAA TRACON SMA TRACON (SMA)
02:16PM 39.4022 -75.3461 190° South 332 382 17,000  Level FAA TRACON SMA TRACON (SMA)
02:16PM 39.3675 -75.3525 188° South 330 380 17,000  Level FAA TRACON SMA TRACON (SMA)
02:16PM 39.3419 -75.3564 187° South 328 377 17,000  Level FAA TRACON SMA TRACON (SMA)
02:17PM 39.3067 -75.3642 190° South 328 377 17,000  Level FAA TRACON SMA TRACON (SMA)
02:17PM 39.2772 -75.3689 187° South 328 377 17,000  Level FAA TRACON SMA TRACON (SMA)
02:17PM 39.2494 -75.3736 187° South 328 377 17,000  Level FAA TRACON SMA TRACON (SMA)
02:18PM 39.2425 -75.3747 187° South 328 377 17,000  Level FAA TRACON SMA TRACON (SMA)
02:18PM 39.2425 -75.3747 270° West 328 377 17,000 1,140 Level FAA TRACON SMA TRACON (SMA)
02:19PM 39.0569 -75.4044 187° South 331 381 19,200 1,800 Climbing Washington Center
02:20PM 38.9631 -75.4181 186° South 331 381 21,600 1,380 Climbing Washington Center
02:21PM 38.8694 -75.4344 188° South 337 388 22,000 180 Climbing Washington Center
02:22PM 38.7778 -75.4478 186° South 337 388 22,000  Level Washington Center
02:23PM 38.6817 -75.4614 186° South 337 388 22,000  Level Washington Center
02:24PM 38.5881 -75.4775 188° South 342 394 22,000  Level Washington Center
02:25PM 38.4942 -75.4936 188° South 342 394 22,000  Level Washington Center
02:26PM 38.3983 -75.5069 186° South 347 399 22,000  Level Washington Center
02:27PM 38.2961 -75.5389 194° South 347 399 22,000  Level Washington Center
02:28PM 38.2147 -75.5892 206° Southwest 347 399 22,000 -180 Level Washington Center
02:29PM 38.1336 -75.6419 207° Southwest 337 388 21,700 -1,500 Descending Washington Center
02:30PM 38.0542 -75.6919 206° Southwest 329 379 19,100 -2,280 Descending Washington Center
02:31PM 37.9750 -75.7419 206° Southwest 324 373 17,200 -2,160 Descending Washington Center
02:32PM 37.9247 -75.7733 206° Southwest 310 357 15,700 -2,520 Descending Washington Center
02:32PM 37.8997 -75.7944 214° Southwest 324 373 14,700 -2,400 Descending Washington Center
02:33PM 37.8183 -75.8336 201° Southwest 319 367 12,400 -2,040 Descending Washington Center
02:34PM 37.7808 -75.8625 211° Southwest 310 357 11,600 -1,440 Descending Washington Center
02:34PM 37.7453 -75.8858 207° Southwest 319 367 11,000 -1,020 Descending Washington Center
02:35PM 37.7097 -75.9067 205° Southwest 303 349 10,700 -900 Descending Washington Center
02:35PM 37.6681 -75.9303 204° Southwest 313 360 10,100 -660 Descending Washington Center
02:36PM 37.6283 -75.9536 205° Southwest 302 348 10,000 -120 Descending Washington Center
02:36PM 37.5906 -75.9744 204° Southwest 308 354 10,000 -300 Level Washington Center
02:37PM 37.5344 -75.9794 184° South 303 349 9,700 -720 Descending Washington Center
02:37PM 37.5114 -75.9819 185° South 302 348 9,300 -1,020 Descending Washington Center
02:38PM 37.4550 -75.9894 186° South 277 319 8,700 -1,020 Descending Washington Center
02:38PM 37.4342 -75.9919 185° South 289 333 8,300 -1,020 Descending Washington Center
02:39PM 37.3842 -75.9969 185° South 279 321 7,800 -1,020 Descending Washington Center
02:39PM 37.3569 -75.9994 184° South 289 333 7,300 -1,020 Descending Washington Center
02:40PM 37.2986 -76.0225 197° South 287 330 6,700 -1,020 Descending Washington Center
02:40PM 37.2817 -76.0303 200° South 289 333 6,300 -1,020 Descending Washington Center
02:41PM 37.2547 -76.0433 201° Southwest 287 330 6,100 -1,020 Descending Washington Center
02:41PM 37.2067 -76.0639 199° South 289 333 5,300 -780 Descending Washington Center
02:42PM 37.1503 -76.0844 196° South 277 319 5,000 -480 Descending Washington Center
02:43PM 37.1083 -76.1075 204° Southwest 271 312 4,700 -1,200 Descending Washington Center
02:44PM 37.0433 -76.1567 211° Southwest 258 297 3,100 -840 Descending Washington Center
02:45PM 36.9869 -76.2133 219° Southwest 262 302 3,000 -60 Descending Washington Center
02:46PM 36.9344 -76.2650 218° Southwest 220 253 3,000  Level Washington Center